• Join FlightAware (Why Join?)
  • Login
  • US Flag 
07:32AM EST


 

Airport Tracker/Info


-or-


 

Live Flight TrackerFlight Track Log ✈ TCF3494 ✈ 13-Jun-2013 ✈ KORD - KLGA

Flight Track Log - Related Links

Times and Time Zones

All times are in EDT time to prevent confusion due to time zone crossing. See the TCF3494 flight status page for this flight to view local times or setup timezone preferences in your user account.

Time Position Orientation Groundspeed Altitude Reporting Facility
EDT Latitude Longitude Course Direction KTS MPH feet Rate Location/Type
08:36PM 42.0000 -87.8833 87° East 152 175 1,900  Level Chicago TRACON
08:37PM 42.0031 -87.7919 87° East 196 226 4,000 1,980 Climbing Chicago Center
08:38PM 41.9989 -87.6872 93° East 250 288 6,600 2,820 Climbing Chicago Center
08:39PM 41.9903 -87.5783 96° East 289 333 9,900 2,760 Climbing Chicago Center
08:40PM 41.9806 -87.4647 97° East 302 348 12,400 2,340 Climbing Chicago Center
08:41PM 41.9700 -87.3442 97° East 321 369 14,800 2,520 Climbing Chicago Center
08:42PM 41.9561 -87.1928 97° East 339 390 17,700 2,340 Climbing Chicago Center
08:43PM 41.9447 -87.0619 97° East 351 404 19,700 1,800 Climbing Chicago Center
08:44PM 41.9472 -86.9275 89° East 360 414 21,500 1,800 Climbing Chicago Center
08:45PM 41.9492 -86.7881 89° East 372 428 23,500 1,860 Climbing Chicago Center
08:46PM 41.9519 -86.6344 89° East 377 434 25,400 1,500 Climbing Chicago Center
08:47PM 41.9531 -86.4867 89° East 391 450 26,700 1,200 Climbing Chicago Center
08:48PM 41.9550 -86.3325 89° East 411 473 27,900 1,140 Climbing Chicago Center
08:49PM 41.9519 -86.1728 91° East 427 491 29,100 1,440 Climbing Chicago Center
08:50PM 41.9364 -86.0125 97° East 433 498 30,900 1,500 Climbing Chicago Center
08:51PM 41.9189 -85.8214 97° East 431 496 32,200 1,320 Climbing Chicago Center
08:52PM 41.9044 -85.6636 97° East 425 489 33,700 1,200 Climbing Chicago Center
08:53PM 41.8894 -85.5081 97° East 418 481 34,700 600 Climbing Chicago Center
08:54PM 41.8744 -85.3500 97° East 422 486 35,000 120 Climbing Chicago Center
08:56PM 41.8578 -85.1814 98° East 446 513 35,000  Level Chicago Center
08:57PM 41.8397 -85.0081 98° East 461 531 35,000  Level Chicago Center
08:58PM 41.8206 -84.8289 98° East 478 550 35,000  Level Chicago Center
08:59PM 41.8008 -84.6433 98° East 498 573 35,000  Level Chicago Center
08:59PM 41.7839 -84.4597 97° East 494 568 35,000  Level Cleveland Center
09:00PM 41.7797 -84.2731 92° East 505 581 35,000  Level Cleveland Center
09:01PM 41.7725 -84.1056 93° East 505 581 35,000  Level Cleveland Center
09:02PM 41.7717 -83.9244 90° East 500 575 35,000  Level Cleveland Center
09:03PM 41.7706 -83.7378 90° East 500 575 35,000  Level Cleveland Center
09:04PM 41.7650 -83.5536 92° East 500 575 35,000  Level Cleveland Center
09:05PM 41.7489 -83.3719 97° East 500 575 35,000  Level Cleveland Center
09:06PM 41.7344 -83.1850 96° East 500 575 35,000  Level Cleveland Center
09:07PM 41.7136 -83.0006 99° East 500 575 35,000  Level Cleveland Center
09:08PM 41.6944 -82.8133 98° East 507 583 35,000  Level Cleveland Center
09:09PM 41.6769 -82.6319 97° East 502 578 35,000  Level Cleveland Center
09:10PM 41.6592 -82.4481 97° East 502 578 35,000  Level Cleveland Center
09:11PM 41.6372 -82.2472 98° East 502 578 35,000  Level Cleveland Center
09:12PM 41.6189 -82.0664 98° East 502 578 35,000  Level Cleveland Center
09:13PM 41.6000 -81.8994 99° East 502 578 35,000  Level Cleveland Center
09:14PM 41.5792 -81.7156 99° East 502 578 35,000  Level Cleveland Center
09:15PM 41.5600 -81.5322 98° East 502 578 35,000  Level Cleveland Center
09:16PM 41.5364 -81.3267 99° East 502 578 35,000  Level Cleveland Center
09:17PM 41.5147 -81.1433 99° East 501 577 35,000  Level Cleveland Center
09:18PM 41.4986 -80.9631 97° East 501 577 35,000  Level Cleveland Center
09:19PM 41.4803 -80.7800 98° East 501 577 35,000  Level Cleveland Center
09:20PM 41.4658 -80.5969 96° East 501 577 35,000  Level Cleveland Center
09:21PM 41.4492 -80.4142 97° East 501 577 35,000  Level Cleveland Center
09:22PM 41.4342 -80.2314 96° East 501 577 35,000  Level Cleveland Center
09:23PM 41.4147 -80.0489 98° East 501 577 35,000  Level Cleveland Center
09:24PM 41.3992 -79.8856 97° East 501 577 35,000  Level Cleveland Center
09:25PM 41.3792 -79.7031 98° East 501 577 35,000  Level Cleveland Center
09:26PM 41.3608 -79.4986 97° East 506 582 35,000  Level Cleveland Center
09:27PM 41.3422 -79.3164 98° East 501 577 35,000  Level Cleveland Center
09:28PM 41.3258 -79.1564 98° East 496 571 35,000  Level Cleveland Center
09:29PM 41.3067 -78.9744 98° East 496 571 35,000  Level Cleveland Center
09:30PM 41.2869 -78.7731 97° East 496 571 35,000  Level Cleveland Center
09:31PM 41.2672 -78.5942 98° East 496 571 35,000  Level Cleveland Center
09:33PM 41.2303 -78.2728 99° East 515 593 35,000 -720 Level New York Center
09:34PM 41.2078 -78.0964 100° East 503 579 33,000 -1,020 Descending New York Center
09:35PM 41.1872 -77.9203 99° East 485 558 33,000  Level New York Center
09:36PM 41.1628 -77.7386 100° East 490 564 33,000  Level New York Center
09:37PM 41.1419 -77.5600 99° East 490 564 33,000  Level New York Center
09:38PM 41.1186 -77.3786 100° East 490 564 33,000  Level New York Center
09:39PM 41.0931 -77.2025 101° East 490 564 33,000 -1,080 Level New York Center
09:40PM 41.0714 -77.0244 99° East 490 564 30,900 -2,400 Descending New York Center
09:41PM 41.0453 -76.8431 101° East 490 564 28,300 -2,580 Descending New York Center
09:42PM 41.0208 -76.6675 100° East 490 564 25,700 -2,520 Descending New York Center
09:43PM 40.9831 -76.5022 107° East 478 550 23,300 -2,340 Descending New York Center
09:44PM 40.9444 -76.3506 109° East 458 527 21,000 -2,280 Descending New York Center
09:45PM 40.9133 -76.2106 106° East 425 489 18,800 -1,860 Descending New York Center
09:46PM 40.8869 -76.1042 108° East 362 417 17,400 -1,500 Descending New York Center
09:47PM 40.8589 -75.9867 107° East 342 394 15,900 -1,560 Descending New York Center
09:48PM 40.8272 -75.8556 108° East 337 388 14,300 -1,440 Descending New York Center
09:49PM 40.8022 -75.7550 108° East 332 382 13,000 -660 Descending New York Center
09:50PM 40.7736 -75.6431 109° East 322 371 13,000  Level New York Center
09:51PM 40.7431 -75.5233 109° East 316 364 13,000  Level New York Center
09:52PM 40.7142 -75.4117 109° East 316 364 13,000  Level New York Center
09:53PM 40.6767 -75.3050 115° Southeast 316 364 13,000 -120 Level New York Center
09:54PM 40.6369 -75.1986 116° Southeast 316 364 12,800 -960 Descending New York Center
09:55PM 40.5992 -75.0922 115° Southeast 321 369 11,100 -1,440 Descending New York Center
09:56PM 40.5633 -74.9917 115° Southeast 321 369 10,000 -600 Descending New York Center
09:57PM 40.5353 -74.8972 111° Southeast 309 356 10,000  Level New York Center
09:58PM 40.4997 -74.7775 111° Southeast 309 356 10,000  Level New York Center
09:59PM 40.4833 -74.7167 109° East 295 339 10,000 -360 Level New York TRACON
10:01PM 40.3894 -74.5206 122° Southeast 266 306 9,000 -540 Descending New York Center
10:02PM 40.3944 -74.4336 86° East 236 272 8,200 -1,020 Descending New York Center
10:03PM 40.4167 -74.3833 60° Northeast 261 300 7,400 -780 Descending New York TRACON
10:04PM 40.4500 -74.3000 62° Northeast 256 295 7,000 -480 Descending New York TRACON
10:05PM 40.4833 -74.2167 62° Northeast 256 295 6,500 -780 Descending New York TRACON
10:06PM 40.5167 -74.1333 62° Northeast 250 288 5,500 -960 Descending New York TRACON
10:08PM 40.5833 -74.0333 49° Northeast 187 215 3,700 -960 Descending New York TRACON
10:09PM 40.6333 -74.0000 27° Northeast 192 221 2,700 -720 Descending New York TRACON
10:10PM 40.6667 -73.9667 37° Northeast 138 159 2,300 -420 Descending New York TRACON